Time;durP1;ratioP1;P1;durP2;ratioP2;P2;SDS_P1;SDS_P2;PMS_P1;PMS_P2;Temp;Humidity;BMP_temperature;BMP_pressure;BME280_temperature;BME280_humidity;BME280_pressure;Samples;Min_cycle;Max_cycle;Signal;HPM_P1;HPM_P2
2023/04/19 00:01:22;;;;;;;11.60;10.40;;;12.60;99.90;;;;;;5035045;28;20578;-72
2023/04/19 00:03:47;;;;;;;14.63;11.17;;;12.40;99.90;;;;;;5035334;28;20413;-72
2023/04/19 00:06:13;;;;;;;12.57;11.23;;;12.30;99.90;;;;;;5035569;28;20510;-74
2023/04/19 00:08:40;;;;;;;13.03;11.73;;;12.20;99.90;;;;;;5083265;23;20274;-71
2023/04/19 00:11:06;;;;;;;13.67;12.10;;;12.10;99.90;;;;;;5055775;28;20431;-70
2023/04/19 00:13:32;;;;;;;12.40;11.10;;;12.10;99.90;;;;;;5055788;28;20940;-71
2023/04/19 00:15:57;;;;;;;10.33;9.33;;;12.10;99.90;;;;;;5055755;28;20167;-70
2023/04/19 00:18:23;;;;;;;15.50;12.00;;;12.20;99.90;;;;;;5053008;28;20209;-71
2023/04/19 00:20:50;;;;;;;12.50;11.30;;;12.20;99.90;;;;;;5044022;28;20710;-71
2023/04/19 00:23:15;;;;;;;13.87;11.87;;;12.30;99.90;;;;;;5016523;28;20174;-70
2023/04/19 00:25:41;;;;;;;12.93;11.63;;;12.30;99.90;;;;;;5021542;28;20461;-71
2023/04/19 00:28:06;;;;;;;12.43;11.13;;;12.30;99.90;;;;;;5034291;28;20194;-71
2023/04/19 00:30:32;;;;;;;12.57;11.23;;;12.40;99.90;;;;;;5032897;28;20175;-70
2023/04/19 00:32:58;;;;;;;12.30;11.10;;;12.50;99.90;;;;;;5035735;28;20194;-71
2023/04/19 00:35:23;;;;;;;11.30;10.20;;;12.60;99.90;;;;;;5035870;28;20203;-71
2023/04/19 00:37:49;;;;;;;12.47;11.07;;;12.50;99.90;;;;;;5035749;28;20190;-70
2023/04/19 00:40:15;;;;;;;16.00;13.60;;;12.60;99.90;;;;;;5052234;28;20257;-71
2023/04/19 00:42:41;;;;;;;12.70;11.30;;;12.60;99.90;;;;;;5035520;28;20256;-70
2023/04/19 00:45:07;;;;;;;14.03;12.63;;;12.60;99.90;;;;;;5034403;28;20314;-71
2023/04/19 00:47:34;;;;;;;14.20;12.80;;;12.50;99.90;;;;;;5033531;28;20443;-71
2023/04/19 00:50:02;;;;;;;13.80;12.30;;;12.40;99.90;;;;;;5035515;28;20488;-71
2023/04/19 00:52:28;;;;;;;13.90;12.40;;;12.20;99.90;;;;;;5035454;28;20417;-71
2023/04/19 00:54:56;;;;;;;14.50;13.00;;;12.10;99.90;;;;;;5035553;28;20480;-71
2023/04/19 00:57:23;;;;;;;13.80;12.30;;;12.20;99.90;;;;;;5034719;28;20441;-71
2023/04/19 00:59:50;;;;;;;15.03;11.70;;;12.30;99.90;;;;;;5035388;28;20483;-71
2023/04/19 01:02:16;;;;;;;14.00;12.50;;;12.40;99.90;;;;;;5053084;28;20495;-70
2023/04/19 01:04:42;;;;;;;13.67;12.27;;;12.30;99.90;;;;;;5053239;28;20566;-71
2023/04/19 01:07:08;;;;;;;12.60;11.27;;;12.20;99.90;;;;;;5035180;28;20444;-71
2023/04/19 01:09:33;;;;;;;13.00;11.63;;;12.10;99.90;;;;;;5035331;28;20410;-71
2023/04/19 01:12:00;;;;;;;13.37;11.97;;;12.20;99.90;;;;;;5034742;28;20175;-71
2023/04/19 01:14:26;;;;;;;13.47;10.87;;;12.20;99.90;;;;;;5035068;28;20200;-70
2023/04/19 01:16:53;;;;;;;16.10;13.30;;;12.10;99.90;;;;;;5035300;28;20407;-71
2023/04/19 01:19:18;;;;;;;16.83;13.30;;;11.90;99.90;;;;;;5035495;28;20189;-71
2023/04/19 01:21:45;;;;;;;13.73;12.33;;;12.00;99.90;;;;;;5035151;28;20419;-71
2023/04/19 01:24:10;;;;;;;15.07;13.57;;;11.90;99.90;;;;;;5035036;28;20209;-71
2023/04/19 01:26:36;;;;;;;15.40;13.80;;;12.00;99.90;;;;;;5033892;28;20959;-71
2023/04/19 01:29:02;;;;;;;13.80;12.40;;;12.00;99.90;;;;;;5051721;28;20243;-71
2023/04/19 01:31:28;;;;;;;13.93;12.20;;;11.90;99.90;;;;;;5051767;28;20261;-70
2023/04/19 01:33:53;;;;;;;13.50;12.10;;;11.90;99.90;;;;;;5051701;28;20443;-71
2023/04/19 01:36:19;;;;;;;13.90;12.53;;;12.00;99.90;;;;;;5051582;28;20251;-70
2023/04/19 01:38:46;;;;;;;14.97;13.47;;;12.20;99.90;;;;;;5051520;28;20566;-71
2023/04/19 01:41:12;;;;;;;17.07;14.07;;;12.20;99.90;;;;;;5051263;28;20172;-70
2023/04/19 01:43:38;;;;;;;14.10;12.60;;;12.30;99.90;;;;;;5051689;28;20784;-70
2023/04/19 01:46:03;;;;;;;15.73;12.60;;;12.20;99.90;;;;;;5034720;28;20463;-71
2023/04/19 01:48:29;;;;;;;14.07;11.90;;;12.20;99.90;;;;;;5052535;28;20241;-70
2023/04/19 01:50:55;;;;;;;13.57;12.17;;;12.20;99.90;;;;;;5052146;28;20177;-71
2023/04/19 01:53:20;;;;;;;15.30;13.60;;;12.20;99.90;;;;;;5051315;28;20262;-71
2023/04/19 01:55:46;;;;;;;15.07;13.60;;;12.20;99.90;;;;;;5051171;28;20262;-70
2023/04/19 01:58:12;;;;;;;18.33;13.50;;;11.90;99.90;;;;;;5050820;28;20235;-70
2023/04/19 02:00:37;;;;;;;15.40;13.80;;;12.00;99.90;;;;;;5051551;28;20176;-70
2023/04/19 02:03:03;;;;;;;14.77;13.17;;;11.80;99.90;;;;;;5051217;28;20601;-71
2023/04/19 02:05:29;;;;;;;14.93;13.33;;;11.90;99.90;;;;;;5034790;28;20167;-71
2023/04/19 02:07:54;;;;;;;17.77;14.77;;;11.90;99.90;;;;;;5051184;28;20205;-71
2023/04/19 02:10:20;;;;;;;16.20;14.53;;;12.00;99.90;;;;;;5050941;28;20171;-71
2023/04/19 02:12:45;;;;;;;16.57;13.93;;;12.00;99.90;;;;;;5050932;28;20201;-71
2023/04/19 02:15:11;;;;;;;16.60;14.50;;;12.00;99.90;;;;;;5051166;28;20200;-71
2023/04/19 02:17:37;;;;;;;17.47;15.70;;;11.90;99.90;;;;;;5051087;28;20194;-71
2023/04/19 02:20:04;;;;;;;15.43;13.80;;;12.10;99.90;;;;;;5051148;28;20179;-71
2023/04/19 02:22:30;;;;;;;17.33;15.40;;;12.20;99.90;;;;;;5051030;28;20409;-71
2023/04/19 02:24:56;;;;;;;15.60;14.00;;;12.30;99.90;;;;;;5051118;28;20493;-71
2023/04/19 02:27:21;;;;;;;14.20;12.63;;;12.40;99.90;;;;;;5050424;28;20206;-71
2023/04/19 02:29:47;;;;;;;16.60;14.80;;;12.10;99.90;;;;;;5036586;28;20174;-71
2023/04/19 02:32:13;;;;;;;14.63;13.23;;;11.90;99.90;;;;;;5034217;28;20642;-71
2023/04/19 02:34:38;;;;;;;15.43;12.93;;;12.00;99.90;;;;;;5036930;28;20194;-71
2023/04/19 02:37:04;;;;;;;15.63;13.33;;;12.10;99.90;;;;;;5034711;28;20893;-71
2023/04/19 02:39:30;;;;;;;16.80;14.13;;;12.10;99.90;;;;;;5038113;28;20649;-72
2023/04/19 02:41:55;;;;;;;13.87;12.47;;;12.20;99.90;;;;;;5037445;28;20220;-72
2023/04/19 02:44:21;;;;;;;15.33;13.73;;;12.10;99.90;;;;;;5038437;28;20201;-71
2023/04/19 02:46:49;;;;;;;16.53;14.83;;;12.10;99.90;;;;;;5038145;28;20170;-71
2023/04/19 02:49:15;;;;;;;16.53;14.93;;;12.10;99.90;;;;;;5035165;28;20214;-71
2023/04/19 02:51:40;;;;;;;15.43;13.20;;;11.80;99.90;;;;;;5038249;28;20508;-71
2023/04/19 02:54:06;;;;;;;15.67;14.07;;;11.80;99.90;;;;;;5038355;28;20199;-71
2023/04/19 02:56:31;;;;;;;45.30;32.00;;;11.90;99.90;;;;;;5037063;28;20176;-71
2023/04/19 02:59:00;;;;;;;23.50;18.30;;;11.80;99.90;;;;;;5037529;28;20187;-70
2023/04/19 03:01:25;;;;;;;18.23;15.33;;;11.60;99.90;;;;;;5037581;28;20167;-71
2023/04/19 03:03:51;;;;;;;15.03;13.47;;;11.50;99.90;;;;;;5037769;28;20795;-71
2023/04/19 03:06:17;;;;;;;16.10;13.83;;;11.30;99.90;;;;;;5037479;28;20175;-71
2023/04/19 03:08:42;;;;;;;16.87;14.93;;;11.20;99.90;;;;;;5037362;28;20211;-71
2023/04/19 03:11:09;;;;;;;17.00;15.30;;;11.00;99.90;;;;;;5037065;28;20643;-71
2023/04/19 03:13:35;;;;;;;15.77;14.13;;;11.20;99.90;;;;;;5037334;28;20248;-70
2023/04/19 03:16:01;;;;;;;16.93;15.07;;;11.20;99.90;;;;;;5037422;28;20820;-71
2023/04/19 03:18:26;;;;;;;16.83;15.03;;;11.10;99.90;;;;;;5037391;28;20724;-71
2023/04/19 03:20:52;;;;;;;17.27;15.57;;;11.10;99.90;;;;;;5037374;28;20174;-71
2023/04/19 03:23:17;;;;;;;16.73;14.90;;;11.00;99.90;;;;;;5037257;28;20170;-71
2023/04/19 03:25:43;;;;;;;18.80;16.37;;;11.00;99.90;;;;;;5036960;28;20175;-71
2023/04/19 03:28:08;;;;;;;18.20;16.27;;;11.00;99.90;;;;;;5036931;28;20290;-71
2023/04/19 03:30:34;;;;;;;16.67;14.87;;;10.90;99.90;;;;;;5037743;28;20200;-71
2023/04/19 03:33:00;;;;;;;17.87;16.00;;;11.20;99.90;;;;;;5037014;28;20262;-71
2023/04/19 03:35:28;;;;;;;18.30;16.30;;;11.40;99.90;;;;;;5037057;28;20251;-71
2023/04/19 03:37:53;;;;;;;16.27;14.57;;;11.30;99.90;;;;;;5036897;28;20192;-71
2023/04/19 03:40:19;;;;;;;17.20;15.40;;;11.20;99.90;;;;;;5036850;28;20414;-71
2023/04/19 03:42:45;;;;;;;17.80;15.90;;;11.10;99.90;;;;;;5036494;28;20665;-71
2023/04/19 03:45:10;;;;;;;17.20;15.40;;;11.20;99.90;;;;;;5036965;28;20414;-71
2023/04/19 03:47:36;;;;;;;20.40;16.47;;;11.00;99.90;;;;;;5036922;28;20272;-71
2023/04/19 03:50:02;;;;;;;18.70;16.70;;;11.00;99.90;;;;;;5035833;28;20171;-71
2023/04/19 03:52:27;;;;;;;17.33;15.00;;;11.00;99.90;;;;;;5036819;28;20201;-71
2023/04/19 03:54:53;;;;;;;18.23;15.93;;;11.10;99.90;;;;;;5036815;28;20268;-71
2023/04/19 03:57:19;;;;;;;18.57;15.37;;;11.20;99.90;;;;;;5036147;28;20179;-71
2023/04/19 03:59:44;;;;;;;19.57;17.57;;;11.30;99.90;;;;;;5053332;28;20179;-71
2023/04/19 04:02:10;;;;;;;20.50;16.40;;;11.30;99.90;;;;;;5053022;28;20193;-71
2023/04/19 04:04:35;;;;;;;19.57;17.03;;;11.30;99.90;;;;;;5053155;28;20681;-71
2023/04/19 04:07:01;;;;;;;17.80;15.93;;;11.00;99.90;;;;;;5053166;28;20174;-71
2023/04/19 04:09:27;;;;;;;19.47;16.70;;;10.90;99.90;;;;;;5052942;28;20235;-71
2023/04/19 04:11:52;;;;;;;19.60;15.77;;;10.80;99.90;;;;;;5052444;28;20170;-71
2023/04/19 04:14:18;;;;;;;21.43;17.13;;;10.90;99.90;;;;;;5052802;28;20675;-71
2023/04/19 04:16:43;;;;;;;15.87;14.33;;;10.80;99.90;;;;;;5052860;28;20228;-71
2023/04/19 04:19:10;;;;;;;19.50;16.40;;;10.80;99.90;;;;;;5052869;28;20693;-71
2023/04/19 04:21:35;;;;;;;17.53;15.73;;;10.90;99.90;;;;;;5053962;28;20177;-71
2023/04/19 04:24:02;;;;;;;17.27;15.63;;;11.00;99.90;;;;;;5046250;28;20413;-71
2023/04/19 04:26:32;;;;;;;18.00;16.10;;;10.90;99.90;;;;;;5035411;28;20647;-71
2023/04/19 04:28:59;;;;;;;17.87;15.63;;;10.70;99.90;;;;;;5036090;28;20520;-71
2023/04/19 04:31:25;;;;;;;20.30;18.20;;;10.60;99.90;;;;;;5036169;28;20932;-71
2023/04/19 04:33:52;;;;;;;18.53;16.53;;;10.60;99.90;;;;;;5026534;28;20448;-71
2023/04/19 04:36:19;;;;;;;21.27;18.13;;;10.80;99.90;;;;;;5016093;28;20169;-71
2023/04/19 04:38:44;;;;;;;23.33;19.20;;;11.00;99.90;;;;;;5015747;28;20941;-71
2023/04/19 04:41:11;;;;;;;20.80;18.60;;;10.80;99.90;;;;;;5033876;28;20406;-71
2023/04/19 04:43:37;;;;;;;26.30;18.87;;;10.80;99.90;;;;;;5015565;28;20171;-71
2023/04/19 04:46:03;;;;;;;22.70;19.67;;;11.00;99.90;;;;;;5015697;28;20421;-71
2023/04/19 04:48:30;;;;;;;22.27;18.77;;;11.00;99.90;;;;;;5015603;28;20964;-71
2023/04/19 04:50:56;;;;;;;46.93;39.43;;;11.00;99.90;;;;;;5015790;28;20171;-71
2023/04/19 04:53:22;;;;;;;20.83;18.60;;;11.00;99.90;;;;;;5015463;28;20946;-71
2023/04/19 04:55:47;;;;;;;20.10;17.60;;;11.00;99.90;;;;;;5019269;28;20936;-71
2023/04/19 04:58:13;;;;;;;26.33;22.50;;;10.60;99.90;;;;;;5030887;28;20430;-71
2023/04/19 05:00:38;;;;;;;21.07;16.47;;;10.60;99.90;;;;;;5031623;28;20668;-71
2023/04/19 05:03:05;;;;;;;20.67;17.50;;;10.60;99.90;;;;;;5031657;28;20167;-71
2023/04/19 05:05:31;;;;;;;20.27;17.00;;;10.60;99.90;;;;;;5031753;28;20217;-71
2023/04/19 05:07:56;;;;;;;18.60;16.60;;;10.60;99.90;;;;;;5031595;28;20485;-71
2023/04/19 05:10:22;;;;;;;22.80;18.70;;;10.50;99.90;;;;;;5031701;28;20925;-71
2023/04/19 05:12:47;;;;;;;21.40;18.83;;;10.50;99.90;;;;;;5032808;28;20225;-71
2023/04/19 05:15:13;;;;;;;19.07;17.17;;;10.40;99.90;;;;;;5031597;28;20203;-71
2023/04/19 05:17:39;;;;;;;22.20;17.50;;;10.50;99.90;;;;;;5031588;28;20190;-71
2023/04/19 05:20:05;;;;;;;140.23;102.73;;;10.50;99.90;;;;;;5031565;28;20174;-70
2023/04/19 05:22:31;;;;;;;21.60;19.30;;;10.60;99.90;;;;;;5031831;28;20619;-71
2023/04/19 05:24:56;;;;;;;24.27;18.40;;;10.70;99.90;;;;;;5031851;28;20421;-71
2023/04/19 05:27:22;;;;;;;20.23;17.93;;;10.60;99.90;;;;;;5041651;28;20205;-71
2023/04/19 05:29:50;;;;;;;26.70;22.37;;;10.50;99.90;;;;;;5043573;28;20712;-71
2023/04/19 05:32:15;;;;;;;21.93;19.53;;;10.50;99.90;;;;;;5040081;28;20224;-70
2023/04/19 05:34:41;;;;;;;19.40;17.30;;;10.50;99.90;;;;;;5024288;28;20832;-71
2023/04/19 05:37:06;;;;;;;21.03;15.87;;;10.50;99.90;;;;;;5025259;28;20163;-71
2023/04/19 05:39:32;;;;;;;18.70;16.70;;;10.40;99.90;;;;;;5023660;28;20214;-71
2023/04/19 05:41:58;;;;;;;17.80;16.00;;;10.40;99.90;;;;;;5024150;28;20167;-71
2023/04/19 05:44:23;;;;;;;35.77;29.53;;;10.40;99.90;;;;;;5025199;28;20647;-71
2023/04/19 05:46:49;;;;;;;23.17;18.97;;;10.80;99.90;;;;;;5023305;28;20597;-71
2023/04/19 05:49:14;;;;;;;29.70;25.13;;;11.10;99.90;;;;;;5038428;28;20195;-71
2023/04/19 05:51:40;;;;;;;29.87;25.20;;;11.30;99.90;;;;;;5049065;28;20166;-71
2023/04/19 05:54:06;;;;;;;17.50;15.40;;;11.50;99.90;;;;;;5024325;28;20282;-72
2023/04/19 05:56:31;;;;;;;20.63;16.30;;;11.10;99.90;;;;;;5023902;28;20168;-72
2023/04/19 05:58:59;;;;;;;18.73;15.47;;;10.90;99.90;;;;;;5034539;28;20185;-72
2023/04/19 06:01:25;;;;;;;26.57;22.10;;;11.10;99.90;;;;;;5034677;28;20636;-72
2023/04/19 06:03:52;;;;;;;19.00;17.00;;;10.80;99.90;;;;;;5034512;28;20418;-73
2023/04/19 06:06:20;;;;;;;19.30;16.83;;;10.80;99.90;;;;;;5034881;28;20634;-72
2023/04/19 06:08:46;;;;;;;19.43;17.20;;;10.80;99.90;;;;;;5067951;23;20496;-73
2023/04/19 06:11:11;;;;;;;25.57;20.03;;;11.10;99.90;;;;;;5072601;28;20445;-73
2023/04/19 06:13:37;;;;;;;39.97;34.03;;;11.10;99.90;;;;;;5056716;28;20290;-75
2023/04/19 06:16:03;;;;;;;19.63;16.87;;;11.30;99.90;;;;;;5075960;28;20166;-73
2023/04/19 06:18:28;;;;;;;16.53;14.83;;;11.10;99.90;;;;;;5054584;28;20191;-73
2023/04/19 06:20:54;;;;;;;23.70;19.17;;;11.00;99.90;;;;;;5038077;28;20168;-73
2023/04/19 06:23:20;;;;;;;23.43;19.23;;;10.90;99.90;;;;;;5037931;28;20546;-73
2023/04/19 06:25:47;;;;;;;24.27;19.40;;;11.10;99.90;;;;;;5021222;28;20182;-73
2023/04/19 06:28:13;;;;;;;37.00;27.07;;;10.90;99.90;;;;;;5037615;28;20278;-73
2023/04/19 06:30:38;;;;;;;19.00;16.70;;;11.20;99.90;;;;;;5046830;28;20984;-74
2023/04/19 06:33:04;;;;;;;16.60;15.00;;;11.30;99.90;;;;;;5037964;28;20171;-75
2023/04/19 06:35:30;;;;;;;18.00;16.10;;;11.30;99.90;;;;;;5037804;28;20667;-74
2023/04/19 06:37:56;;;;;;;43.50;29.30;;;11.40;99.90;;;;;;5055422;28;20193;-73
2023/04/19 06:40:22;;;;;;;16.30;14.67;;;11.40;99.90;;;;;;5038071;28;20453;-73
2023/04/19 06:42:47;;;;;;;20.93;15.13;;;11.40;99.90;;;;;;5036871;28;20160;-74
2023/04/19 06:45:14;;;;;;;17.60;15.23;;;11.30;99.90;;;;;;5034529;28;20165;-74
2023/04/19 06:47:40;;;;;;;16.97;15.00;;;11.50;99.90;;;;;;5017640;28;20183;-75
2023/04/19 06:50:06;;;;;;;33.93;23.40;;;11.60;99.90;;;;;;5034031;28;20418;-75
2023/04/19 06:52:32;;;;;;;36.60;25.13;;;11.70;99.90;;;;;;5017736;28;20236;-76
2023/04/19 06:54:58;;;;;;;17.13;15.07;;;11.90;99.90;;;;;;5017438;28;20449;-74
2023/04/19 06:57:23;;;;;;;16.50;14.80;;;12.20;99.90;;;;;;5033031;28;20171;-73
2023/04/19 06:59:49;;;;;;;17.50;15.40;;;12.30;99.90;;;;;;5053998;28;20187;-74
2023/04/19 07:02:15;;;;;;;38.80;32.20;;;12.50;99.90;;;;;;5038078;28;20495;-77
2023/04/19 07:04:40;;;;;;;19.33;15.10;;;12.00;99.90;;;;;;5053982;28;20172;-75
2023/04/19 07:07:06;;;;;;;20.13;17.00;;;11.80;99.90;;;;;;5051945;28;20678;-76
2023/04/19 07:09:32;;;;;;;44.57;40.07;;;11.80;99.90;;;;;;5037109;28;20610;-73
2023/04/19 07:11:57;;;;;;;19.70;17.60;;;11.80;99.90;;;;;;5054497;28;20227;-73
2023/04/19 07:14:23;;;;;;;18.57;16.00;;;11.80;99.90;;;;;;5054857;28;20196;-73
2023/04/19 07:16:49;;;;;;;30.60;27.40;;;12.00;99.90;;;;;;5050057;28;20171;-72
2023/04/19 07:19:14;;;;;;;17.47;15.57;;;12.30;99.90;;;;;;5013887;28;20207;-74
2023/04/19 07:21:40;;;;;;;17.70;14.50;;;12.30;99.90;;;;;;5044030;28;20176;-74
2023/04/19 07:24:06;;;;;;;16.37;14.67;;;11.70;99.90;;;;;;5025391;28;20648;-76
2023/04/19 07:26:33;;;;;;;17.60;14.13;;;11.60;99.90;;;;;;5043850;28;20171;-75
2023/04/19 07:28:59;;;;;;;17.80;14.87;;;11.70;99.90;;;;;;5042336;28;20512;-76
2023/04/19 07:31:27;;;;;;;17.70;14.40;;;11.70;99.90;;;;;;5044401;28;20411;-75
2023/04/19 07:33:52;;;;;;;18.00;14.00;;;11.80;99.90;;;;;;5037367;28;20449;-76
2023/04/19 07:36:18;;;;;;;16.50;14.30;;;12.20;99.90;;;;;;5033275;28;20425;-74
2023/04/19 07:38:44;;;;;;;16.50;14.43;;;12.50;99.90;;;;;;5033451;28;20188;-74
2023/04/19 07:41:09;;;;;;;17.43;15.40;;;11.90;99.90;;;;;;5033219;28;20638;-74
2023/04/19 07:43:36;;;;;;;17.83;15.50;;;11.90;99.90;;;;;;5016544;28;20173;-75
2023/04/19 07:46:07;;;;;;;18.30;15.63;;;12.00;99.90;;;;;;5033178;28;20563;-75
2023/04/19 07:48:33;;;;;;;16.77;15.07;;;12.10;99.90;;;;;;5032978;28;20437;-75
2023/04/19 07:51:11;;;;;;;16.80;15.00;;;12.10;99.90;;;;;;5032990;28;20425;-75
2023/04/19 07:53:38;;;;;;;25.10;14.70;;;12.50;99.90;;;;;;5034291;28;20151;-76
2023/04/19 07:56:08;;;;;;;17.00;13.67;;;12.60;99.90;;;;;;5037303;28;20420;-73
2023/04/19 07:58:34;;;;;;;21.47;14.93;;;12.70;99.90;;;;;;5052693;28;20904;-75
2023/04/19 08:01:00;;;;;;;18.67;15.47;;;12.80;99.90;;;;;;5052740;28;20404;-75
2023/04/19 08:03:26;;;;;;;17.50;14.33;;;12.60;99.90;;;;;;5053723;28;20424;-74
2023/04/19 08:05:52;;;;;;;16.60;13.80;;;12.60;99.90;;;;;;5019602;28;20172;-75
2023/04/19 08:08:17;;;;;;;18.03;15.33;;;12.80;99.90;;;;;;5052524;28;20234;-74
2023/04/19 08:10:43;;;;;;;14.93;13.40;;;12.90;99.90;;;;;;5052503;28;20413;-74
2023/04/19 08:13:09;;;;;;;14.30;12.80;;;12.60;99.90;;;;;;5052703;28;20631;-76
2023/04/19 08:15:35;;;;;;;15.10;13.00;;;12.80;99.90;;;;;;5054106;28;20196;-77
2023/04/19 08:18:03;;;;;;;14.50;13.03;;;13.00;99.90;;;;;;5053739;28;20216;-75
2023/04/19 08:20:32;;;;;;;14.77;13.10;;;13.20;99.90;;;;;;5036771;28;20770;-75
2023/04/19 08:23:01;;;;;;;18.10;13.10;;;13.10;99.90;;;;;;5053777;28;20403;-75
2023/04/19 08:25:27;;;;;;;16.90;13.70;;;13.20;99.90;;;;;;5019677;28;20822;-77
2023/04/19 08:27:57;;;;;;;16.37;14.73;;;13.20;99.90;;;;;;5045094;28;20795;-76
2023/04/19 08:30:23;;;;;;;18.10;15.63;;;13.30;99.90;;;;;;5044196;28;20818;-74
2023/04/19 08:32:49;;;;;;;15.80;12.67;;;13.40;99.90;;;;;;5032473;28;20815;-76
2023/04/19 08:35:15;;;;;;;13.77;12.20;;;13.40;99.90;;;;;;5041818;28;20449;-75
2023/04/19 08:37:41;;;;;;;13.90;11.77;;;13.40;99.90;;;;;;5042069;28;20488;-76
2023/04/19 08:40:07;;;;;;;12.80;11.43;;;13.20;99.90;;;;;;5032253;28;20408;-76
2023/04/19 08:42:33;;;;;;;11.57;10.37;;;13.20;99.90;;;;;;5043948;28;20191;-75
2023/04/19 08:45:06;;;;;;;10.80;9.73;;;13.40;99.90;;;;;;5036077;28;20497;-76
2023/04/19 08:47:33;;;;;;;11.87;10.37;;;13.50;99.90;;;;;;5016135;28;20545;-75
2023/04/19 08:50:00;;;;;;;10.80;9.70;;;13.30;99.90;;;;;;5040591;28;20421;-77
2023/04/19 08:52:26;;;;;;;12.13;11.00;;;13.20;99.90;;;;;;5041910;28;20402;-75
2023/04/19 08:54:54;;;;;;;10.77;9.63;;;13.00;99.90;;;;;;5047380;28;20488;-75
2023/04/19 08:57:20;;;;;;;11.27;10.13;;;13.00;99.90;;;;;;5048516;28;20420;-76
2023/04/19 08:59:49;;;;;;;11.53;10.33;;;13.20;99.90;;;;;;5048204;28;20448;-79
2023/04/19 09:02:15;;;;;;;11.07;10.00;;;13.60;99.90;;;;;;5054940;28;20417;-76
2023/04/19 09:04:41;;;;;;;11.13;9.47;;;14.10;99.90;;;;;;5051835;28;20411;-72
2023/04/19 09:07:09;;;;;;;10.43;9.47;;;14.10;99.90;;;;;;5052889;28;20229;-75
2023/04/19 09:09:35;;;;;;;14.20;11.10;;;13.80;99.90;;;;;;5047696;28;20761;-74
2023/04/19 09:12:01;;;;;;;10.27;9.20;;;14.00;99.90;;;;;;5048144;28;20422;-75
2023/04/19 09:14:27;;;;;;;11.00;9.90;;;13.60;99.90;;;;;;5031232;28;20547;-75
2023/04/19 09:17:10;;;;;;;11.27;10.17;;;13.50;99.90;;;;;;5031497;28;20500;-75
2023/04/19 09:19:48;;;;;;;10.90;9.90;;;13.70;99.90;;;;;;5048728;28;20429;-75
2023/04/19 09:22:14;;;;;;;12.40;11.07;;;13.60;99.90;;;;;;5025390;28;20767;-75
2023/04/19 09:24:40;;;;;;;11.13;9.97;;;13.60;99.90;;;;;;5024279;28;20492;-75
2023/04/19 09:27:05;;;;;;;12.50;10.83;;;13.50;99.90;;;;;;5023065;28;20271;-75
2023/04/19 09:29:31;;;;;;;11.80;10.60;;;13.50;99.90;;;;;;5041589;28;20293;-75
2023/04/19 09:31:57;;;;;;;12.30;11.10;;;13.40;99.90;;;;;;5020174;28;20163;-75
2023/04/19 09:34:23;;;;;;;12.43;11.10;;;13.30;99.90;;;;;;5031298;28;20596;-75
2023/04/19 09:36:49;;;;;;;13.67;12.37;;;13.30;99.90;;;;;;5031262;28;20414;-75
2023/04/19 09:39:30;;;;;;;13.23;11.60;;;13.70;99.90;;;;;;5031485;28;20698;-76
2023/04/19 09:41:57;;;;;;;12.17;10.87;;;13.80;99.90;;;;;;5031272;28;20642;-76
2023/04/19 09:44:22;;;;;;;12.70;11.50;;;14.00;99.90;;;;;;5031193;28;20447;-73
2023/04/19 09:46:51;;;;;;;13.53;11.70;;;14.30;99.90;;;;;;5032524;28;20418;-72
2023/04/19 09:49:25;;;;;;;13.13;11.90;;;14.40;99.90;;;;;;5035593;28;20198;-73
2023/04/19 09:51:55;;;;;;;14.93;11.37;;;14.60;99.90;;;;;;5037945;28;20428;-73
2023/04/19 09:54:23;;;;;;;11.60;10.40;;;15.00;99.90;;;;;;5036784;28;20462;-74
2023/04/19 09:56:51;;;;;;;14.50;12.67;;;15.20;99.90;;;;;;5028709;28;20932;-76
2023/04/19 09:59:17;;;;;;;10.83;9.83;;;15.30;99.90;;;;;;5054794;28;20466;-72
2023/04/19 10:01:44;;;;;;;11.03;10.00;;;15.10;99.90;;;;;;5021958;28;20408;-73
2023/04/19 10:04:11;;;;;;;11.37;10.20;;;15.60;99.90;;;;;;5055213;28;20401;-75
2023/04/19 10:06:39;;;;;;;11.43;10.33;;;15.50;99.90;;;;;;5055241;28;20405;-76
2023/04/19 10:09:06;;;;;;;13.40;11.03;;;15.50;99.90;;;;;;5055202;28;20452;-77
2023/04/19 10:11:39;;;;;;;12.83;11.53;;;15.70;99.90;;;;;;5038468;28;20405;-73
2023/04/19 10:14:10;;;;;;;12.70;11.10;;;15.20;99.90;;;;;;5054834;28;20471;-72
2023/04/19 10:16:37;;;;;;;10.97;9.87;;;15.20;99.90;;;;;;5051963;28;20409;-74
2023/04/19 10:19:15;;;;;;;11.17;10.00;;;15.60;99.90;;;;;;5057813;28;20846;-73
2023/04/19 10:21:42;;;;;;;12.10;10.90;;;15.50;99.90;;;;;;5054878;28;20400;-73
2023/04/19 10:24:13;;;;;;;11.70;10.50;;;15.10;99.90;;;;;;5054750;28;20781;-73
2023/04/19 10:27:12;;;;;;;11.50;9.90;;;14.90;99.90;;;;;;5055962;28;20409;-73
2023/04/19 10:29:57;;;;;;;11.57;10.20;;;15.10;99.90;;;;;;5001559;28;20439;-73
2023/04/19 10:32:27;;;;;;;10.80;9.80;;;15.40;99.90;;;;;;5038259;28;20827;-75
2023/04/19 10:34:53;;;;;;;10.10;9.20;;;16.00;99.90;;;;;;5034937;28;20443;-74
2023/04/19 10:37:25;;;;;;;10.43;9.43;;;16.10;99.90;;;;;;5026953;28;20936;-74
2023/04/19 10:39:51;;;;;;;12.20;10.97;;;15.90;99.90;;;;;;5042871;28;20398;-72
2023/04/19 10:42:17;;;;;;;10.53;9.53;;;15.50;99.90;;;;;;5048311;28;20510;-73
2023/04/19 10:45:21;;;;;;;11.53;9.87;;;14.80;99.90;;;;;;5052787;28;20431;-74
2023/04/19 10:47:47;;;;;;;11.30;10.13;;;14.60;99.90;;;;;;5037234;28;20437;-76
2023/04/19 10:50:16;;;;;;;10.17;9.17;;;14.70;99.90;;;;;;5055396;28;20400;-76
2023/04/19 10:52:42;;;;;;;11.33;10.23;;;14.70;99.90;;;;;;5054258;28;20173;-77
2023/04/19 10:55:08;;;;;;;11.17;10.03;;;14.50;99.90;;;;;;5054004;28;20594;-76
2023/04/19 10:58:02;;;;;;;11.83;10.63;;;14.40;99.90;;;;;;5053393;28;20175;-76
2023/04/19 11:00:30;;;;;;;11.90;10.10;;;14.10;99.90;;;;;;5055595;28;20170;-74
2023/04/19 11:02:56;;;;;;;13.43;11.23;;;13.70;99.90;;;;;;5054008;28;20926;-73
2023/04/19 11:05:22;;;;;;;11.47;10.23;;;13.70;99.90;;;;;;5055343;28;20398;-74
2023/04/19 11:07:48;;;;;;;12.83;11.43;;;13.80;99.90;;;;;;5037577;28;21022;-74
2023/04/19 11:10:30;;;;;;;11.33;10.20;;;13.90;99.90;;;;;;5020281;28;20628;-74
2023/04/19 11:12:56;;;;;;;12.37;10.70;;;14.00;99.90;;;;;;5035846;28;20157;-72
2023/04/19 11:15:23;;;;;;;13.63;11.73;;;14.20;99.90;;;;;;5003831;28;20456;-74
2023/04/19 11:17:50;;;;;;;12.70;11.50;;;14.70;99.90;;;;;;5042592;28;20959;-74
2023/04/19 11:20:16;;;;;;;13.10;11.63;;;14.30;99.90;;;;;;5041401;28;20839;-76
2023/04/19 11:22:45;;;;;;;12.20;11.10;;;13.80;99.90;;;;;;5021302;28;20421;-75
2023/04/19 11:25:18;;;;;;;12.90;11.43;;;14.00;99.90;;;;;;5017388;28;20172;-74
2023/04/19 11:27:49;;;;;;;11.37;10.00;;;13.70;99.90;;;;;;5034246;28;20499;-74
2023/04/19 11:30:18;;;;;;;11.93;10.73;;;13.60;99.90;;;;;;5053640;28;20439;-75
2023/04/19 11:32:55;;;;;;;12.30;11.00;;;13.70;99.90;;;;;;5053513;28;20885;-75
2023/04/19 11:35:29;;;;;;;12.43;11.23;;;13.50;99.90;;;;;;5053449;28;20451;-75
2023/04/19 11:37:57;;;;;;;12.50;11.20;;;13.10;99.90;;;;;;5053464;28;20428;-75
2023/04/19 11:40:27;;;;;;;12.40;11.20;;;13.20;99.90;;;;;;5053345;28;20407;-75
2023/04/19 11:43:01;;;;;;;13.67;12.27;;;13.00;99.90;;;;;;5053181;28;20437;-75
2023/04/19 11:45:33;;;;;;;13.80;12.33;;;12.90;99.90;;;;;;5036803;28;20783;-75
2023/04/19 11:47:59;;;;;;;13.33;12.00;;;13.00;99.90;;;;;;5036862;28;20436;-75
2023/04/19 11:50:39;;;;;;;15.17;12.83;;;12.70;99.90;;;;;;5053179;28;20777;-75
2023/04/19 11:53:16;;;;;;;13.93;12.53;;;12.70;99.90;;;;;;5054374;28;20424;-75
2023/04/19 11:55:45;;;;;;;12.70;11.37;;;12.70;99.90;;;;;;5052776;28;20455;-75
2023/04/19 11:58:24;;;;;;;17.50;12.97;;;12.80;99.90;;;;;;5054006;28;20478;-75
2023/04/19 12:00:50;;;;;;;14.97;13.40;;;12.70;99.90;;;;;;5054267;28;20817;-75
2023/04/19 12:03:19;;;;;;;17.60;15.40;;;12.60;99.90;;;;;;5052826;28;20495;-75
2023/04/19 12:05:55;;;;;;;16.63;14.93;;;12.50;99.90;;;;;;5036237;28;20411;-75
2023/04/19 12:08:32;;;;;;;15.60;13.97;;;12.30;99.90;;;;;;5081505;23;20522;-70
2023/04/19 12:10:59;;;;;;;17.83;16.03;;;12.00;99.90;;;;;;5055549;28;20758;-71
2023/04/19 12:13:25;;;;;;;17.97;16.13;;;11.90;99.90;;;;;;5056666;28;20919;-70
2023/04/19 12:15:51;;;;;;;18.47;16.50;;;11.90;99.90;;;;;;5056368;28;20454;-72
2023/04/19 12:18:16;;;;;;;17.47;15.70;;;11.70;99.90;;;;;;5053061;28;20433;-70
2023/04/19 12:20:45;;;;;;;21.07;18.03;;;11.90;99.90;;;;;;5036469;28;20404;-72
2023/04/19 12:23:12;;;;;;;22.17;19.00;;;11.80;99.90;;;;;;5036382;28;20268;-71
2023/04/19 12:25:40;;;;;;;19.73;16.93;;;12.00;99.90;;;;;;5035960;28;20626;-70
2023/04/19 12:28:05;;;;;;;20.80;18.53;;;12.20;99.90;;;;;;5035734;28;20409;-71